Time;durP1;ratioP1;P1;durP2;ratioP2;P2;SDS_P1;SDS_P2;PMS_P1;PMS_P2;Temp;Humidity;BMP_temperature;BMP_pressure;BME280_temperature;BME280_humidity;BME280_pressure;Samples;Min_cycle;Max_cycle;Signal;HPM_P1;HPM_P2
2022/05/18 00:00:59;;;;;;;4.15;1.88;;;19.10;99.90;;;;;;5084939;28;20032;-60
2022/05/18 00:03:31;;;;;;;3.00;1.65;;;19.10;99.90;;;;;;5080262;28;20185;-59
2022/05/18 00:06:00;;;;;;;3.58;1.45;;;19.00;99.90;;;;;;5084143;28;20032;-60
2022/05/18 00:08:26;;;;;;;7.70;1.83;;;19.00;99.90;;;;;;5082435;28;20371;-60
2022/05/18 00:10:51;;;;;;;2.95;1.30;;;19.00;99.90;;;;;;5086666;28;20039;-59
2022/05/18 00:13:18;;;;;;;6.18;2.17;;;19.10;99.90;;;;;;5083581;28;20028;-59
2022/05/18 00:15:45;;;;;;;4.20;1.60;;;19.10;99.90;;;;;;5080139;28;20021;-58
2022/05/18 00:18:11;;;;;;;2.38;1.20;;;19.10;99.90;;;;;;5083679;28;20154;-60
2022/05/18 00:20:36;;;;;;;3.75;1.38;;;19.00;99.90;;;;;;5083875;28;20112;-59
2022/05/18 00:23:04;;;;;;;3.55;1.58;;;19.00;99.90;;;;;;5084363;28;20024;-61
2022/05/18 00:25:35;;;;;;;3.05;1.58;;;19.00;99.90;;;;;;5086571;28;20054;-60
2022/05/18 00:28:00;;;;;;;3.42;1.55;;;18.90;99.90;;;;;;5075858;28;20040;-59
2022/05/18 00:30:27;;;;;;;4.15;1.60;;;18.90;99.90;;;;;;5082611;28;20025;-61
2022/05/18 00:32:53;;;;;;;4.13;1.70;;;18.90;99.90;;;;;;5078758;28;20032;-60
2022/05/18 00:35:20;;;;;;;5.40;2.10;;;18.90;99.90;;;;;;5085445;28;20032;-60
2022/05/18 00:37:46;;;;;;;7.50;2.00;;;18.80;99.90;;;;;;5079360;28;20040;-60
2022/05/18 00:40:15;;;;;;;4.15;2.30;;;18.80;99.90;;;;;;5085641;28;20082;-59
2022/05/18 00:42:40;;;;;;;3.30;1.98;;;18.70;99.90;;;;;;5079635;28;20107;-60
2022/05/18 00:45:07;;;;;;;3.03;1.77;;;18.70;99.90;;;;;;5076703;28;20086;-61
2022/05/18 00:47:33;;;;;;;3.45;1.92;;;18.60;99.90;;;;;;5080542;28;20024;-58
2022/05/18 00:50:07;;;;;;;2.42;1.60;;;18.60;99.90;;;;;;5082603;28;20493;-59
2022/05/18 00:52:40;;;;;;;2.88;1.73;;;18.50;99.90;;;;;;5084990;28;20150;-60
2022/05/18 00:55:09;;;;;;;3.30;1.88;;;18.50;99.90;;;;;;5080769;28;20401;-60
2022/05/18 00:57:40;;;;;;;3.35;2.28;;;18.40;99.90;;;;;;5077867;28;20067;-60
2022/05/18 01:00:10;;;;;;;4.22;1.55;;;18.30;99.90;;;;;;5078562;28;20555;-59
2022/05/18 01:02:39;;;;;;;1.85;1.75;;;18.30;99.90;;;;;;5080400;28;20037;-60
2022/05/18 01:05:08;;;;;;;5.63;2.13;;;18.20;99.90;;;;;;5078698;28;20535;-61
2022/05/18 01:07:38;;;;;;;6.72;2.65;;;18.20;99.90;;;;;;5081917;28;20554;-60
2022/05/18 01:10:05;;;;;;;3.95;1.92;;;18.10;99.90;;;;;;5083240;28;20040;-60
2022/05/18 01:12:30;;;;;;;4.47;1.90;;;18.00;99.90;;;;;;5084179;28;20019;-60
2022/05/18 01:15:02;;;;;;;4.05;2.15;;;17.90;99.90;;;;;;5067048;28;20565;-60
2022/05/18 01:17:33;;;;;;;4.88;2.30;;;17.90;99.90;;;;;;5081412;28;20099;-61
2022/05/18 01:20:01;;;;;;;3.80;1.90;;;17.80;99.90;;;;;;5092013;28;20020;-61
2022/05/18 01:22:44;;;;;;;5.65;2.53;;;17.80;99.90;;;;;;5076681;28;20024;-60
2022/05/18 01:25:27;;;;;;;7.00;2.30;;;17.70;99.90;;;;;;5078247;28;20468;-61
2022/05/18 01:27:56;;;;;;;4.00;2.25;;;17.70;99.90;;;;;;5086696;28;20024;-61
2022/05/18 01:30:21;;;;;;;3.83;1.95;;;17.70;99.90;;;;;;5078809;28;20028;-61
2022/05/18 01:32:53;;;;;;;5.10;2.20;;;17.60;99.90;;;;;;5084060;28;20024;-60
2022/05/18 01:35:26;;;;;;;8.77;2.65;;;17.50;99.90;;;;;;5075864;28;20104;-61
2022/05/18 01:37:57;;;;;;;5.55;2.22;;;17.50;99.90;;;;;;5084428;28;20024;-60
2022/05/18 01:40:41;;;;;;;2.63;2.38;;;17.40;99.90;;;;;;5078607;28;20031;-61
2022/05/18 01:43:29;;;;;;;10.27;2.80;;;17.30;99.90;;;;;;5080191;28;20034;-61
2022/05/18 01:45:57;;;;;;;3.85;2.60;;;17.30;99.90;;;;;;5079361;28;20119;-61
2022/05/18 01:48:27;;;;;;;4.57;2.50;;;17.20;99.90;;;;;;5080159;28;20024;-60
2022/05/18 01:50:53;;;;;;;5.30;1.77;;;17.20;99.90;;;;;;5082974;28;20028;-62
2022/05/18 01:53:19;;;;;;;3.58;2.25;;;17.10;99.90;;;;;;5082829;28;20023;-61
2022/05/18 01:55:46;;;;;;;4.38;2.38;;;17.10;99.90;;;;;;5089153;28;20102;-61
2022/05/18 01:58:13;;;;;;;7.65;2.60;;;17.00;99.90;;;;;;5082309;28;20035;-61
2022/05/18 02:00:40;;;;;;;4.57;2.55;;;17.00;99.90;;;;;;5087274;28;20051;-61
2022/05/18 02:03:06;;;;;;;5.20;2.00;;;16.90;99.90;;;;;;5074336;28;20037;-61
2022/05/18 02:05:32;;;;;;;5.07;2.53;;;16.90;99.90;;;;;;5083822;28;20036;-61
2022/05/18 02:07:57;;;;;;;11.40;3.63;;;16.80;99.90;;;;;;5076639;28;20514;-61
2022/05/18 02:10:24;;;;;;;3.08;2.42;;;16.80;99.90;;;;;;5080698;28;20082;-62
2022/05/18 02:12:51;;;;;;;5.53;2.60;;;16.70;99.90;;;;;;5076275;28;20390;-61
2022/05/18 02:15:16;;;;;;;3.83;2.95;;;16.80;99.90;;;;;;5083485;28;20035;-60
2022/05/18 02:17:43;;;;;;;6.38;2.60;;;16.70;99.90;;;;;;5074971;28;20020;-60
2022/05/18 02:20:10;;;;;;;5.50;2.85;;;16.70;99.90;;;;;;5081049;28;20075;-61
2022/05/18 02:22:36;;;;;;;3.88;2.70;;;16.70;99.90;;;;;;5078317;28;20143;-62
2022/05/18 02:25:02;;;;;;;6.75;2.72;;;16.70;99.90;;;;;;5083214;28;20024;-61
2022/05/18 02:27:28;;;;;;;4.70;2.10;;;16.70;99.90;;;;;;5081620;28;20121;-60
2022/05/18 02:29:54;;;;;;;7.82;2.22;;;16.70;99.90;;;;;;5082096;28;20032;-61
2022/05/18 02:32:20;;;;;;;6.90;2.92;;;16.70;99.90;;;;;;5076668;28;20528;-59
2022/05/18 02:34:45;;;;;;;8.95;2.83;;;16.60;99.90;;;;;;5083665;28;20445;-61
2022/05/18 02:37:11;;;;;;;6.07;2.42;;;16.60;99.90;;;;;;5074606;28;20557;-61
2022/05/18 02:39:36;;;;;;;6.60;2.50;;;16.60;99.90;;;;;;5081597;28;20520;-62
2022/05/18 02:42:02;;;;;;;5.18;2.78;;;16.60;99.90;;;;;;5077385;28;20385;-61
2022/05/18 02:44:28;;;;;;;7.30;2.70;;;16.50;99.90;;;;;;5080798;28;20036;-61
2022/05/18 02:46:59;;;;;;;7.45;2.75;;;16.50;99.90;;;;;;5076161;28;20056;-61
2022/05/18 02:49:25;;;;;;;7.82;3.17;;;16.50;99.90;;;;;;5076335;28;20027;-62
2022/05/18 02:51:51;;;;;;;4.07;2.80;;;16.50;99.90;;;;;;5073241;28;20119;-59
2022/05/18 02:57:03;;;;;;;4.57;2.78;;;16.50;99.90;;;;;;5083731;28;20089;-61
2022/05/18 02:59:29;;;;;;;8.00;2.58;;;16.50;99.90;;;;;;5080563;28;20035;-60
2022/05/18 03:01:54;;;;;;;5.05;2.65;;;16.50;99.90;;;;;;5077631;28;20028;-60
2022/05/18 03:04:20;;;;;;;7.28;3.28;;;16.50;99.90;;;;;;5080690;28;20024;-61
2022/05/18 03:06:46;;;;;;;4.72;2.38;;;16.50;99.90;;;;;;5078778;28;20626;-60
2022/05/18 03:09:12;;;;;;;11.18;3.00;;;16.50;99.90;;;;;;5084105;28;20035;-60
2022/05/18 03:11:38;;;;;;;8.50;2.80;;;16.50;99.90;;;;;;5076217;28;20032;-58
2022/05/18 03:14:03;;;;;;;10.80;3.05;;;16.50;99.90;;;;;;5077915;28;20029;-59
2022/05/18 03:16:30;;;;;;;6.78;2.92;;;16.40;99.90;;;;;;5075659;28;20021;-60
2022/05/18 03:18:56;;;;;;;6.13;2.70;;;16.40;99.90;;;;;;5079999;28;20082;-62
2022/05/18 03:24:07;;;;;;;7.50;2.95;;;16.40;99.90;;;;;;5074210;28;20405;-61
2022/05/18 03:29:01;;;;;;;5.53;2.88;;;16.40;99.90;;;;;;5086788;28;20648;-60
2022/05/18 03:31:27;;;;;;;9.93;3.28;;;16.50;99.90;;;;;;5085815;28;20036;-64
2022/05/18 03:33:55;;;;;;;3.80;2.88;;;16.50;99.90;;;;;;5089236;28;20035;-64
2022/05/18 03:36:21;;;;;;;3.53;2.42;;;16.40;99.90;;;;;;5072211;28;20032;-63
2022/05/18 03:38:48;;;;;;;7.22;3.08;;;16.40;99.90;;;;;;5072193;28;20033;-63
2022/05/18 03:41:16;;;;;;;4.35;2.80;;;16.50;99.90;;;;;;5072700;28;20135;-62
2022/05/18 03:43:42;;;;;;;6.93;2.92;;;16.50;99.90;;;;;;5070331;28;20158;-63
2022/05/18 03:46:08;;;;;;;4.47;2.60;;;16.60;99.90;;;;;;5073226;28;20120;-63
2022/05/18 03:48:34;;;;;;;3.50;2.78;;;16.50;99.90;;;;;;5071541;28;20414;-62
2022/05/18 03:51:02;;;;;;;7.88;2.83;;;16.50;99.90;;;;;;5073359;28;20113;-63
2022/05/18 03:53:28;;;;;;;8.35;2.40;;;16.60;99.90;;;;;;5068154;28;20021;-63
2022/05/18 03:55:54;;;;;;;7.53;2.53;;;16.60;99.90;;;;;;5073660;28;20028;-62
2022/05/18 03:58:20;;;;;;;9.35;3.20;;;16.60;99.90;;;;;;5070332;28;20025;-63
2022/05/18 04:00:48;;;;;;;6.40;3.55;;;16.60;99.90;;;;;;5070276;28;20024;-63
2022/05/18 04:03:15;;;;;;;7.28;3.55;;;16.60;99.90;;;;;;5070359;28;20040;-63
2022/05/18 04:05:41;;;;;;;3.92;3.20;;;16.60;99.90;;;;;;5070845;28;20023;-63
2022/05/18 04:08:08;;;;;;;5.55;3.20;;;16.60;99.90;;;;;;5067380;28;20028;-63
2022/05/18 04:10:34;;;;;;;6.35;3.70;;;16.60;99.90;;;;;;5067042;28;20048;-63
2022/05/18 04:13:00;;;;;;;6.45;2.88;;;16.60;99.90;;;;;;5069879;28;20032;-63
2022/05/18 04:15:27;;;;;;;13.45;3.80;;;16.60;99.90;;;;;;5068952;28;20046;-63
2022/05/18 04:17:53;;;;;;;4.43;2.78;;;16.60;99.90;;;;;;5069858;28;20402;-63
2022/05/18 04:20:21;;;;;;;6.60;3.03;;;16.60;99.90;;;;;;5072425;28;20032;-63
2022/05/18 04:22:47;;;;;;;4.18;2.53;;;16.70;99.90;;;;;;5070483;28;20090;-63
2022/05/18 04:25:16;;;;;;;7.80;3.65;;;16.70;99.90;;;;;;5062180;28;20036;-61
2022/05/18 04:27:42;;;;;;;8.07;3.05;;;16.70;99.90;;;;;;5068076;28;20036;-65
2022/05/18 04:30:08;;;;;;;6.07;2.65;;;16.80;99.90;;;;;;5072088;28;20163;-64
2022/05/18 04:32:37;;;;;;;7.95;3.55;;;16.80;99.90;;;;;;5069745;28;20029;-65
2022/05/18 04:35:02;;;;;;;4.38;3.10;;;16.80;99.90;;;;;;5071018;28;20428;-65
2022/05/18 04:37:28;;;;;;;5.55;3.20;;;16.80;99.90;;;;;;5071907;28;20028;-63
2022/05/18 04:39:53;;;;;;;5.78;2.92;;;16.90;99.90;;;;;;5072542;28;20028;-63
2022/05/18 04:42:22;;;;;;;10.05;3.45;;;16.90;99.90;;;;;;5069656;28;20033;-64
2022/05/18 04:44:49;;;;;;;5.28;2.97;;;16.90;99.90;;;;;;5065370;28;20032;-64
2022/05/18 04:47:15;;;;;;;6.40;3.00;;;16.90;99.90;;;;;;5069527;28;20016;-65
2022/05/18 04:49:40;;;;;;;4.93;3.13;;;16.90;99.90;;;;;;5067687;28;20037;-64
2022/05/18 04:52:07;;;;;;;5.07;3.40;;;16.90;99.90;;;;;;5071125;28;20032;-65
2022/05/18 04:54:34;;;;;;;8.80;3.20;;;16.90;99.90;;;;;;5068417;28;20402;-65
2022/05/18 04:57:00;;;;;;;4.72;3.25;;;17.00;99.90;;;;;;5067650;28;20020;-63
2022/05/18 04:59:26;;;;;;;5.28;2.90;;;17.00;99.90;;;;;;5066687;28;20025;-64
2022/05/18 05:01:51;;;;;;;7.53;3.35;;;17.00;99.90;;;;;;5070569;28;20017;-66
2022/05/18 05:04:17;;;;;;;4.25;2.50;;;17.10;99.90;;;;;;5066370;28;20051;-66
2022/05/18 05:06:45;;;;;;;8.13;3.10;;;17.10;99.90;;;;;;5070561;28;20078;-65
2022/05/18 05:09:11;;;;;;;4.35;2.80;;;17.10;99.90;;;;;;5069920;28;20120;-65
2022/05/18 05:11:36;;;;;;;4.88;3.47;;;17.10;99.90;;;;;;5071798;28;20067;-66
2022/05/18 05:14:02;;;;;;;6.20;3.40;;;17.20;99.90;;;;;;5070723;28;20020;-66
2022/05/18 05:16:29;;;;;;;6.15;3.30;;;17.20;99.90;;;;;;5068884;28;20474;-65
2022/05/18 05:18:58;;;;;;;5.57;3.17;;;17.30;99.90;;;;;;5070857;28;20111;-66
2022/05/18 05:21:24;;;;;;;7.78;3.55;;;17.30;99.90;;;;;;5066989;28;20433;-65
2022/05/18 05:23:50;;;;;;;7.32;3.65;;;17.40;99.90;;;;;;5067584;28;20028;-65
2022/05/18 05:26:16;;;;;;;6.05;3.67;;;17.50;99.90;;;;;;5068030;28;20486;-65
2022/05/18 05:28:42;;;;;;;6.95;3.78;;;17.50;99.90;;;;;;5068024;28;20116;-66
2022/05/18 05:31:09;;;;;;;5.47;3.13;;;17.60;99.90;;;;;;5072566;28;20583;-65
2022/05/18 05:33:39;;;;;;;6.93;2.97;;;17.60;99.90;;;;;;5067728;28;20108;-65
2022/05/18 05:36:05;;;;;;;8.10;3.33;;;17.70;99.90;;;;;;5068769;28;20853;-65
2022/05/18 05:38:31;;;;;;;9.27;3.35;;;17.80;99.90;;;;;;5071523;28;20060;-66
2022/05/18 05:40:56;;;;;;;4.18;2.95;;;17.80;99.90;;;;;;5070416;28;20544;-66
2022/05/18 05:43:22;;;;;;;3.58;2.47;;;17.90;99.90;;;;;;5071983;28;20448;-66
2022/05/18 05:46:02;;;;;;;10.80;3.40;;;17.90;99.90;;;;;;5070387;28;20021;-66
2022/05/18 05:48:30;;;;;;;5.85;3.22;;;17.90;99.90;;;;;;5071559;28;20024;-66
2022/05/18 05:50:56;;;;;;;5.35;2.80;;;17.90;99.90;;;;;;5072080;28;20093;-65
2022/05/18 05:53:22;;;;;;;5.07;2.97;;;17.90;99.90;;;;;;5071702;28;20044;-66
2022/05/18 05:55:47;;;;;;;4.53;3.05;;;17.90;99.90;;;;;;5071759;28;20494;-66
2022/05/18 05:58:16;;;;;;;5.82;3.10;;;18.00;99.90;;;;;;5070431;28;20739;-66
2022/05/18 06:00:41;;;;;;;7.45;3.15;;;18.00;99.90;;;;;;5071377;28;20041;-66
2022/05/18 06:03:07;;;;;;;9.35;3.50;;;18.00;99.90;;;;;;5070899;28;20021;-66
2022/05/18 06:05:32;;;;;;;5.88;3.13;;;18.10;99.90;;;;;;5069776;28;20433;-63
2022/05/18 06:07:58;;;;;;;6.20;3.05;;;18.10;99.90;;;;;;5069333;28;20482;-65
2022/05/18 06:10:23;;;;;;;3.92;2.60;;;18.20;99.90;;;;;;5070270;28;20066;-66
2022/05/18 06:12:49;;;;;;;8.82;3.38;;;18.20;99.90;;;;;;5070608;28;20466;-65
2022/05/18 06:15:15;;;;;;;7.10;3.28;;;18.30;99.90;;;;;;5069612;28;20048;-65
2022/05/18 06:17:41;;;;;;;7.70;3.20;;;18.50;99.90;;;;;;5070575;28;20035;-65
2022/05/18 06:20:07;;;;;;;6.35;3.63;;;18.60;99.90;;;;;;5070601;28;20021;-65
2022/05/18 06:22:33;;;;;;;7.53;2.95;;;18.70;99.90;;;;;;5071287;28;20024;-66
2022/05/18 06:24:58;;;;;;;3.17;2.60;;;18.80;99.90;;;;;;5066677;28;20039;-65
2022/05/18 06:27:24;;;;;;;4.63;2.33;;;18.90;99.90;;;;;;5069988;28;20111;-66
2022/05/18 06:29:50;;;;;;;5.53;2.30;;;18.90;99.90;;;;;;5070572;28;20035;-65
2022/05/18 06:32:16;;;;;;;9.07;3.75;;;19.00;99.90;;;;;;5070574;28;20032;-65
2022/05/18 06:34:44;;;;;;;5.78;2.67;;;19.00;99.90;;;;;;5066505;28;20029;-65
2022/05/18 06:37:11;;;;;;;4.55;2.60;;;19.10;99.90;;;;;;5067267;28;20094;-66
2022/05/18 06:39:36;;;;;;;4.78;2.72;;;19.20;99.90;;;;;;5067929;28;20028;-68
2022/05/18 06:42:02;;;;;;;6.75;2.75;;;19.20;99.90;;;;;;5067877;28;20059;-66
2022/05/18 06:44:28;;;;;;;8.13;3.42;;;19.30;99.90;;;;;;5065994;28;20111;-66
2022/05/18 06:46:58;;;;;;;9.30;3.30;;;19.30;99.90;;;;;;5068122;28;20036;-66
2022/05/18 06:49:26;;;;;;;6.30;2.50;;;19.40;99.90;;;;;;5067527;28;20036;-64
2022/05/18 06:51:52;;;;;;;7.25;2.83;;;19.50;99.90;;;;;;5067768;28;20106;-65
2022/05/18 06:54:19;;;;;;;7.85;3.08;;;19.60;99.90;;;;;;5066805;28;20109;-65
2022/05/18 06:56:45;;;;;;;4.43;2.53;;;19.70;99.90;;;;;;5067675;28;20616;-65
2022/05/18 06:59:12;;;;;;;6.32;2.55;;;19.80;99.90;;;;;;5067751;28;20060;-66
2022/05/18 07:01:38;;;;;;;9.55;3.25;;;19.90;99.90;;;;;;5067628;28;20036;-66
2022/05/18 07:04:05;;;;;;;11.23;3.22;;;19.90;99.90;;;;;;5049400;28;20093;-65
2022/05/18 07:06:37;;;;;;;7.45;3.33;;;20.00;99.90;;;;;;5067563;28;20040;-65
2022/05/18 07:09:06;;;;;;;5.25;2.72;;;20.10;99.90;;;;;;5070708;28;20029;-66
2022/05/18 07:11:33;;;;;;;3.78;2.60;;;20.20;99.90;;;;;;5070925;28;20074;-66
2022/05/18 07:13:58;;;;;;;3.97;2.60;;;20.30;99.90;;;;;;5072868;28;20489;-64
2022/05/18 07:16:26;;;;;;;4.75;2.88;;;20.30;99.90;;;;;;5072009;28;20142;-64
2022/05/18 07:18:53;;;;;;;8.27;3.30;;;20.40;99.90;;;;;;5072079;28;20035;-64
2022/05/18 07:21:20;;;;;;;5.10;2.80;;;20.50;99.90;;;;;;5071362;28;20060;-65
2022/05/18 07:23:46;;;;;;;7.95;2.75;;;20.60;99.90;;;;;;5070821;28;20485;-65
2022/05/18 07:26:13;;;;;;;5.65;3.45;;;20.70;99.90;;;;;;5071612;28;20033;-66
2022/05/18 07:28:39;;;;;;;8.25;2.70;;;20.70;99.90;;;;;;5070765;28;20040;-65
2022/05/18 07:31:06;;;;;;;3.88;2.83;;;20.80;99.90;;;;;;5071093;28;20541;-66
2022/05/18 07:33:32;;;;;;;4.15;2.80;;;20.80;99.90;;;;;;5052782;28;20024;-65
2022/05/18 07:35:59;;;;;;;4.60;3.25;;;20.90;99.90;;;;;;5071737;28;20389;-65
2022/05/18 07:38:26;;;;;;;8.30;2.53;;;21.00;99.90;;;;;;5071660;28;20620;-65
2022/05/18 07:40:52;;;;;;;7.97;3.22;;;21.10;99.90;;;;;;5071151;28;20035;-65
2022/05/18 07:43:18;;;;;;;5.70;2.78;;;21.20;99.90;;;;;;5069743;28;20040;-65
2022/05/18 07:45:49;;;;;;;4.65;2.55;;;21.20;99.90;;;;;;5070240;28;20032;-66
2022/05/18 07:48:16;;;;;;;6.93;2.78;;;21.30;99.90;;;;;;5067407;28;20642;-67
2022/05/18 07:50:42;;;;;;;8.70;2.75;;;21.40;99.90;;;;;;5070278;28;20040;-66
2022/05/18 07:53:08;;;;;;;6.45;2.42;;;21.50;99.90;;;;;;5070632;28;20529;-65
2022/05/18 07:55:34;;;;;;;4.03;2.55;;;21.50;99.90;;;;;;5070522;28;20032;-65
2022/05/18 07:58:04;;;;;;;10.30;2.80;;;21.60;99.90;;;;;;5070098;28;20039;-66
2022/05/18 08:00:29;;;;;;;4.47;3.20;;;21.70;99.90;;;;;;5070714;28;20082;-68
2022/05/18 08:02:55;;;;;;;4.18;2.20;;;21.70;99.90;;;;;;5069095;28;20031;-65
2022/05/18 08:05:21;;;;;;;7.88;3.00;;;21.80;99.90;;;;;;5071587;28;20026;-65
2022/05/18 08:07:47;;;;;;;5.13;2.92;;;21.90;99.90;;;;;;5069754;28;20445;-66
2022/05/18 08:15:46;;;;;;;4.20;3.00;;;22.20;99.90;;;;;;5070391;28;20089;-65
2022/05/18 08:18:12;;;;;;;6.72;2.00;;;22.30;99.90;;;;;;5069835;28;20583;-65
2022/05/18 08:20:40;;;;;;;3.67;2.08;;;22.40;99.90;;;;;;5069692;28;20503;-64
2022/05/18 08:23:06;;;;;;;5.97;2.70;;;22.40;99.90;;;;;;5070795;28;20511;-67
2022/05/18 08:25:32;;;;;;;4.90;2.38;;;22.50;99.90;;;;;;5070275;28;20028;-66
2022/05/18 08:27:58;;;;;;;5.97;3.00;;;22.70;99.90;;;;;;5067023;28;20629;-66
2022/05/18 08:30:24;;;;;;;7.68;2.70;;;22.80;99.90;;;;;;5069573;28;20032;-66
2022/05/18 08:32:50;;;;;;;6.53;2.50;;;22.80;99.90;;;;;;5070276;28;20571;-64
2022/05/18 08:35:17;;;;;;;3.65;1.90;;;23.00;99.90;;;;;;5070192;28;20025;-65
2022/05/18 08:37:46;;;;;;;4.28;2.33;;;23.10;99.90;;;;;;5067256;28;20028;-65
2022/05/18 08:40:32;;;;;;;2.38;1.70;;;23.20;99.90;;;;;;5069374;28;20025;-65
2022/05/18 08:43:00;;;;;;;4.63;1.98;;;23.40;99.90;;;;;;5069405;28;20430;-67
2022/05/18 08:45:30;;;;;;;6.68;2.20;;;23.50;99.90;;;;;;5070403;28;20049;-64
2022/05/18 08:48:21;;;;;;;5.00;2.40;;;23.60;99.90;;;;;;5068896;28;20498;-64
2022/05/18 08:50:48;;;;;;;3.60;1.63;;;23.70;99.90;;;;;;5064118;28;20033;-66
2022/05/18 08:53:33;;;;;;;4.40;1.85;;;23.80;99.90;;;;;;5069553;28;20028;-65
2022/05/18 08:56:03;;;;;;;;;;;24.00;99.90;;;;;;5067954;28;20062;-64
2022/05/18 08:58:29;;;;;;;7.38;2.13;;;24.20;99.90;;;;;;5066558;28;19928;-65
2022/05/18 09:01:03;;;;;;;6.30;3.15;;;24.20;99.90;;;;;;5069909;28;20029;-63
2022/05/18 09:03:38;;;;;;;6.82;1.75;;;24.30;99.90;;;;;;5069516;28;20387;-64
2022/05/18 09:06:11;;;;;;;4.80;1.88;;;24.40;99.90;;;;;;5069763;28;20517;-65
2022/05/18 09:08:40;;;;;;;2.42;1.42;;;24.50;99.90;;;;;;5069163;28;20028;-64
2022/05/18 09:11:08;;;;;;;4.32;2.08;;;24.60;99.90;;;;;;5069167;28;20036;-65
2022/05/18 09:13:33;;;;;;;4.13;2.28;;;24.80;99.90;;;;;;5069269;28;20032;-64
2022/05/18 09:16:16;;;;;;;3.95;1.80;;;24.90;99.90;;;;;;5068872;28;20027;-66
2022/05/18 09:19:01;;;;;;;4.40;2.22;;;25.00;99.90;;;;;;5069193;28;20115;-65
2022/05/18 09:21:32;;;;;;;;;;;25.20;99.90;;;;;;5065252;28;20082;-65
2022/05/18 09:24:22;;;;;;;3.67;1.85;;;25.30;99.90;;;;;;5068822;28;20396;-65
2022/05/18 09:26:56;;;;;;;2.88;2.08;;;25.40;99.90;;;;;;5068979;28;20067;-65
2022/05/18 09:29:28;;;;;;;4.28;2.45;;;25.50;99.90;;;;;;5068763;28;20479;-65
2022/05/18 09:32:05;;;;;;;2.42;1.77;;;25.60;99.90;;;;;;5067509;28;20033;-65
2022/05/18 09:34:58;;;;;;;3.67;1.58;;;25.80;99.90;;;;;;5062443;28;20094;-66
2022/05/18 09:37:45;;;;;;;7.60;2.20;;;25.90;99.90;;;;;;5102826;22;20054;-63
2022/05/18 09:40:13;;;;;;;4.00;1.65;;;26.20;99.90;;;;;;5084422;28;20027;-63
2022/05/18 09:43:06;;;;;;;2.33;1.63;;;26.40;99.90;;;;;;5084327;28;20028;-61
2022/05/18 09:45:34;;;;;;;5.43;1.80;;;26.60;99.90;;;;;;5086985;28;20102;-63
2022/05/18 09:48:09;;;;;;;3.92;2.03;;;26.70;99.90;;;;;;5067385;28;20036;-64
2022/05/18 09:50:41;;;;;;;2.67;1.70;;;26.90;99.90;;;;;;5066286;28;20634;-66
2022/05/18 09:53:07;;;;;;;2.53;1.77;;;27.10;99.90;;;;;;5070826;28;20070;-66
2022/05/18 09:55:33;;;;;;;3.67;2.20;;;27.10;99.90;;;;;;5067684;28;20032;-64
2022/05/18 09:58:26;;;;;;;4.63;1.92;;;27.20;99.90;;;;;;5064568;28;20098;-66
2022/05/18 10:07:27;;;;;;;4.55;3.08;;;27.10;99.90;;;;;;5066089;28;20081;-66
2022/05/18 10:09:43;;;;;;;4.82;1.70;;;27.70;99.90;;;;;;5067628;28;20101;-66
2022/05/18 10:12:18;;;;;;;2.92;1.50;;;28.00;99.90;;;;;;5066048;28;20025;-66
2022/05/18 10:14:48;;;;;;;4.18;1.92;;;28.10;99.90;;;;;;5064918;28;20043;-65
2022/05/18 10:17:15;;;;;;;3.70;2.15;;;28.30;99.90;;;;;;5072505;28;20017;-66
2022/05/18 10:19:45;;;;;;;3.40;1.95;;;28.50;99.90;;;;;;5066939;28;20028;-66
2022/05/18 10:22:16;;;;;;;3.38;1.77;;;28.60;99.90;;;;;;5066684;28;20032;-64
2022/05/18 10:24:51;;;;;;;4.63;1.98;;;28.70;99.90;;;;;;5063012;28;20101;-65
2022/05/18 10:27:16;;;;;;;5.05;1.92;;;28.90;99.90;;;;;;5048362;28;20083;-66
2022/05/18 10:30:08;;;;;;;3.53;1.83;;;29.00;99.90;;;;;;5071515;28;20431;-66
2022/05/18 10:32:56;;;;;;;6.75;2.28;;;29.10;99.90;;;;;;5067120;28;20024;-66
2022/05/18 10:35:49;;;;;;;3.40;1.73;;;29.30;99.90;;;;;;5064131;28;20060;-62
2022/05/18 10:38:28;;;;;;;3.10;1.30;;;29.50;99.90;;;;;;5066229;28;20032;-66
2022/05/18 10:41:15;;;;;;;10.23;1.92;;;29.60;99.90;;;;;;5064231;28;20074;-66
2022/05/18 10:44:02;;;;;;;2.40;1.25;;;29.40;99.90;;;;;;5066219;28;20059;-66
2022/05/18 10:46:38;;;;;;;4.63;1.83;;;29.60;99.90;;;;;;5065013;28;20036;-66
2022/05/18 10:49:10;;;;;;;4.20;2.03;;;29.50;99.90;;;;;;5066913;28;20103;-66
2022/05/18 10:51:38;;;;;;;4.07;1.55;;;29.20;99.90;;;;;;5074277;28;20025;-65
2022/05/18 10:54:21;;;;;;;3.75;1.88;;;29.40;99.90;;;;;;5070335;28;20025;-65
2022/05/18 10:56:47;;;;;;;3.15;1.80;;;29.80;99.90;;;;;;5053734;28;20025;-66
2022/05/18 10:59:39;;;;;;;5.40;2.38;;;29.80;99.90;;;;;;5070491;28;20056;-66
2022/05/18 11:02:09;;;;;;;4.95;1.55;;;29.90;99.90;;;;;;5071348;28;20394;-66
2022/05/18 11:05:03;;;;;;;3.20;1.85;;;30.20;99.90;;;;;;5065302;28;20036;-66
2022/05/18 11:07:30;;;;;;;3.85;1.80;;;30.20;99.90;;;;;;5068298;28;20028;-65
2022/05/18 11:09:57;;;;;;;3.33;2.22;;;30.20;99.90;;;;;;5073515;28;20375;-66
2022/05/18 11:12:59;;;;;;;4.30;2.00;;;30.30;99.90;;;;;;5071075;28;20024;-66
2022/05/18 11:15:56;;;;;;;10.95;1.80;;;30.30;99.90;;;;;;5070724;28;20099;-66
2022/05/18 11:18:44;;;;;;;2.28;1.85;;;30.30;99.90;;;;;;5069318;28;20028;-65
2022/05/18 11:21:43;;;;;;;5.28;1.30;;;30.50;99.90;;;;;;5075046;28;20024;-66
2022/05/18 11:24:30;;;;;;;3.95;1.70;;;30.80;99.90;;;;;;5069833;28;20035;-66
2022/05/18 11:27:12;;;;;;;3.40;1.67;;;30.80;99.90;;;;;;5072946;28;20020;-66
2022/05/18 11:30:07;;;;;;;2.72;1.70;;;30.80;99.90;;;;;;5067684;28;20925;-64
2022/05/18 11:32:45;;;;;;;2.75;1.73;;;30.30;99.90;;;;;;5054917;28;20485;-65
2022/05/18 11:35:23;;;;;;;2.25;1.55;;;30.40;99.90;;;;;;5076514;28;20033;-63
2022/05/18 11:37:54;;;;;;;3.50;1.90;;;30.50;99.90;;;;;;5071107;28;20077;-66
2022/05/18 11:40:25;;;;;;;2.25;1.63;;;30.80;99.90;;;;;;5050723;28;20135;-66
2022/05/18 11:43:00;;;;;;;3.25;1.85;;;31.10;99.90;;;;;;5062754;28;20020;-66
2022/05/18 11:45:38;;;;;;;4.18;1.50;;;30.90;99.90;;;;;;5069496;28;20031;-66
2022/05/18 11:48:10;;;;;;;3.30;1.35;;;30.90;99.90;;;;;;5063335;28;20041;-66
2022/05/18 11:51:10;;;;;;;3.30;1.30;;;30.60;99.90;;;;;;5068337;28;20056;-66
2022/05/18 11:54:10;;;;;;;1.58;1.20;;;30.80;99.90;;;;;;5070105;28;20024;-66
2022/05/18 11:56:45;;;;;;;2.85;1.52;;;30.70;97.90;;;;;;5014395;28;20030;-66
2022/05/18 11:59:45;;;;;;;2.75;1.45;;;30.70;99.80;;;;;;5072970;28;20029;-66
2022/05/18 12:02:42;;;;;;;4.75;1.77;;;31.10;99.90;;;;;;5071700;28;20054;-67
2022/05/18 12:05:15;;;;;;;2.35;1.90;;;31.30;98.90;;;;;;5054971;28;20027;-66
2022/05/18 12:08:24;;;;;;;1.88;1.13;;;31.50;96.60;;;;;;5073077;28;20406;-66
2022/05/18 12:10:56;;;;;;;1.63;1.10;;;31.30;95.90;;;;;;5072085;28;20435;-66
2022/05/18 12:13:22;;;;;;;1.88;1.15;;;31.30;97.70;;;;;;5071567;28;20099;-65
2022/05/18 12:16:12;;;;;;;5.30;1.38;;;31.40;95.70;;;;;;5056193;28;20128;-66
2022/05/18 12:18:46;;;;;;;3.22;1.65;;;31.80;96.90;;;;;;5074418;28;20036;-66
2022/05/18 12:21:30;;;;;;;1.85;1.33;;;31.80;95.20;;;;;;5072981;28;20029;-65
2022/05/18 12:24:02;;;;;;;4.30;1.58;;;32.10;94.30;;;;;;5072343;28;20514;-65
2022/05/18 12:26:31;;;;;;;2.53;1.73;;;31.90;97.40;;;;;;5074741;28;20551;-65
2022/05/18 12:28:56;;;;;;;1.60;1.50;;;32.20;98.90;;;;;;5074694;28;20039;-64
2022/05/18 12:31:22;;;;;;;6.03;1.70;;;32.50;93.90;;;;;;5069827;28;20124;-65
2022/05/18 12:34:03;;;;;;;4.78;1.13;;;32.30;96.50;;;;;;5078832;28;20502;-65
2022/05/18 12:36:52;;;;;;;5.35;1.40;;;32.50;94.70;;;;;;5065719;28;20036;-65
2022/05/18 12:39:31;;;;;;;2.17;1.10;;;32.00;92.60;;;;;;5067995;28;20025;-65
2022/05/18 12:42:00;;;;;;;3.97;1.63;;;32.20;97.50;;;;;;5053179;28;20039;-64
2022/05/18 12:44:34;;;;;;;1.60;1.35;;;32.40;95.20;;;;;;5069314;28;20525;-65
2022/05/18 12:47:29;;;;;;;5.60;1.80;;;32.20;94.20;;;;;;5076281;28;20393;-66
2022/05/18 12:49:56;;;;;;;2.45;1.30;;;32.00;98.00;;;;;;5065401;28;20713;-65
2022/05/18 12:52:39;;;;;;;1.67;1.35;;;32.40;94.40;;;;;;5072120;28;20029;-65
2022/05/18 12:55:42;;;;;;;3.15;1.63;;;32.30;95.40;;;;;;5074081;28;20381;-66
2022/05/18 12:58:10;;;;;;;1.75;1.20;;;32.20;96.10;;;;;;5072860;28;20119;-66
2022/05/18 13:00:42;;;;;;;3.00;1.55;;;32.90;93.50;;;;;;5072786;28;20558;-66
2022/05/18 13:03:10;;;;;;;4.75;1.38;;;33.10;94.50;;;;;;5080998;28;20028;-66
2022/05/18 13:05:40;;;;;;;7.13;1.77;;;33.30;91.30;;;;;;5075223;28;20103;-65
2022/05/18 13:08:36;;;;;;;1.77;1.50;;;33.00;95.10;;;;;;5077244;28;20031;-65
2022/05/18 13:11:14;;;;;;;4.80;1.25;;;33.20;94.40;;;;;;5072223;28;20028;-65
2022/05/18 13:13:58;;;;;;;2.05;1.35;;;33.30;92.50;;;;;;5069173;28;20029;-66
2022/05/18 13:16:38;;;;;;;4.90;1.55;;;33.60;95.00;;;;;;5070832;28;20547;-67
2022/05/18 13:19:13;;;;;;;2.42;1.27;;;33.60;93.90;;;;;;5070787;28;20032;-66
2022/05/18 13:21:51;;;;;;;1.30;1.20;;;32.80;91.60;;;;;;5072058;28;20297;-66
2022/05/18 13:24:26;;;;;;;5.13;1.20;;;33.00;96.30;;;;;;5066566;28;20082;-66
2022/05/18 13:27:03;;;;;;;2.15;1.15;;;33.40;93.30;;;;;;5071738;28;20028;-66